Time;durP1;ratioP1;P1;durP2;ratioP2;P2;SDS_P1;SDS_P2;PMS_P1;PMS_P2;Temp;Humidity;BMP_temperature;BMP_pressure;BME280_temperature;BME280_humidity;BME280_pressure;Samples;Min_cycle;Max_cycle;Signal;HPM_P1;HPM_P2
2023/12/22 00:00:16;;;;;;;29.60;5.67;;;;;;;;;;5068017;28;20453;-84
2023/12/22 00:02:42;;;;;;;23.30;5.47;;;;;;;;;;5056633;28;20944;-84
2023/12/22 00:05:08;;;;;;;21.27;4.35;;;;;;;;;;5070796;28;20904;-84
2023/12/22 00:07:34;;;;;;;20.10;4.93;;;;;;;;;;5072147;28;20804;-84
2023/12/22 00:10:01;;;;;;;21.60;4.13;;;;;;;;;;5086001;28;20437;-84
2023/12/22 00:12:27;;;;;;;19.08;3.97;;;;;;;;;;5071250;28;20398;-85
2023/12/22 00:14:53;;;;;;;25.23;4.97;;;;;;;;;;5066391;28;20396;-85
2023/12/22 00:17:19;;;;;;;28.85;4.40;;;;;;;;;;5041724;28;20426;-84
2023/12/22 00:19:45;;;;;;;29.98;5.55;;;;;;;;;;5074607;28;20424;-84
2023/12/22 00:22:11;;;;;;;29.15;5.93;;;;;;;;;;5040833;28;20762;-84
2023/12/22 00:24:38;;;;;;;34.13;5.68;;;;;;;;;;5052528;28;20404;-85
2023/12/22 00:27:04;;;;;;;29.45;6.38;;;;;;;;;;5078101;28;20901;-85
2023/12/22 00:29:30;;;;;;;25.80;5.30;;;;;;;;;;5074820;28;20942;-84
2023/12/22 00:31:56;;;;;;;30.13;6.15;;;;;;;;;;5093780;28;20445;-85
2023/12/22 00:34:22;;;;;;;29.98;5.78;;;;;;;;;;5070978;28;20424;-84
2023/12/22 00:36:48;;;;;;;30.27;6.63;;;;;;;;;;5091152;28;20757;-85
2023/12/22 00:39:15;;;;;;;28.23;6.10;;;;;;;;;;5082072;28;20829;-85
2023/12/22 00:41:41;;;;;;;34.58;7.00;;;;;;;;;;5064036;28;20402;-84
2023/12/22 00:44:07;;;;;;;31.83;6.70;;;;;;;;;;5056798;28;20412;-85
2023/12/22 00:46:33;;;;;;;28.67;5.97;;;;;;;;;;5052170;28;20455;-85
2023/12/22 00:48:59;;;;;;;27.87;7.00;;;;;;;;;;5060019;28;20425;-85
2023/12/22 00:51:25;;;;;;;29.75;7.10;;;;;;;;;;5067983;28;20518;-85
2023/12/22 00:53:51;;;;;;;33.47;6.65;;;;;;;;;;5074207;28;20400;-85
2023/12/22 00:56:17;;;;;;;27.40;6.28;;;;;;;;;;5067947;28;20807;-85
2023/12/22 00:58:43;;;;;;;27.38;5.45;;;;;;;;;;5057407;28;20398;-85
2023/12/22 01:01:09;;;;;;;19.35;5.25;;;;;;;;;;5072857;28;20441;-85
2023/12/22 01:03:35;;;;;;;20.77;5.30;;;;;;;;;;5053572;28;20493;-84
2023/12/22 01:06:01;;;;;;;22.17;5.00;;;;;;;;;;5061220;28;20394;-84
2023/12/22 01:08:27;;;;;;;19.48;4.35;;;;;;;;;;5087068;28;20455;-85
2023/12/22 01:10:53;;;;;;;17.20;4.25;;;;;;;;;;5062285;28;20425;-86
2023/12/22 01:13:19;;;;;;;16.10;4.47;;;;;;;;;;5049867;28;20452;-85
2023/12/22 01:15:45;;;;;;;24.65;5.30;;;;;;;;;;5046867;28;20401;-85
2023/12/22 01:18:12;;;;;;;17.20;3.97;;;;;;;;;;5052774;28;20497;-85
2023/12/22 01:20:38;;;;;;;16.95;3.70;;;;;;;;;;5053052;28;21003;-85
2023/12/22 01:23:04;;;;;;;15.47;3.77;;;;;;;;;;5054530;28;20438;-84
2023/12/22 01:25:30;;;;;;;16.77;3.58;;;;;;;;;;5037889;28;20407;-85
2023/12/22 01:27:56;;;;;;;13.63;3.25;;;;;;;;;;5054466;28;20858;-84
2023/12/22 01:30:22;;;;;;;13.23;3.42;;;;;;;;;;5077377;28;20418;-85
2023/12/22 01:32:48;;;;;;;18.55;3.97;;;;;;;;;;5076569;28;20405;-84
2023/12/22 01:35:14;;;;;;;14.45;3.92;;;;;;;;;;5082424;28;20832;-85
2023/12/22 01:37:40;;;;;;;22.50;4.63;;;;;;;;;;5053398;28;20466;-85
2023/12/22 01:40:07;;;;;;;17.38;4.10;;;;;;;;;;5055535;28;20808;-84
2023/12/22 01:42:33;;;;;;;18.93;4.03;;;;;;;;;;5086442;28;20430;-85
2023/12/22 01:44:59;;;;;;;20.23;4.30;;;;;;;;;;5070956;28;20405;-85
2023/12/22 01:47:25;;;;;;;19.05;4.53;;;;;;;;;;5073412;28;20405;-85
2023/12/22 01:49:52;;;;;;;18.67;4.90;;;;;;;;;;5056317;28;20422;-85
2023/12/22 01:52:18;;;;;;;18.77;4.72;;;;;;;;;;5077123;28;20457;-84
2023/12/22 01:54:44;;;;;;;19.65;4.63;;;;;;;;;;5073256;28;20479;-84
2023/12/22 01:57:13;;;;;;;18.20;4.15;;;;;;;;;;5036683;28;20399;-85
2023/12/22 01:59:39;;;;;;;19.70;4.65;;;;;;;;;;5053211;28;20407;-85
2023/12/22 02:02:05;;;;;;;19.00;4.00;;;;;;;;;;5041090;28;20431;-85
2023/12/22 02:04:31;;;;;;;20.17;4.32;;;;;;;;;;5089655;28;20441;-85
2023/12/22 02:06:59;;;;;;;24.13;4.32;;;;;;;;;;5089875;28;20812;-85
2023/12/22 02:09:25;;;;;;;24.77;4.45;;;;;;;;;;5065321;28;20787;-85
2023/12/22 02:11:51;;;;;;;22.00;4.00;;;;;;;;;;5111185;28;20443;-84
2023/12/22 02:14:17;;;;;;;33.00;5.43;;;;;;;;;;5085363;28;20863;-85
2023/12/22 02:16:50;;;;;;;22.80;5.03;;;;;;;;;;5070550;28;20413;-84
2023/12/22 02:19:24;;;;;;;24.17;4.90;;;;;;;;;;5087786;28;20440;-85
2023/12/22 02:21:59;;;;;;;20.15;5.18;;;;;;;;;;5091777;28;20402;-85
2023/12/22 02:24:26;;;;;;;27.55;5.30;;;;;;;;;;5093167;28;20405;-85
2023/12/22 02:26:53;;;;;;;22.02;4.28;;;;;;;;;;5121089;27;20425;-84
2023/12/22 02:29:19;;;;;;;27.23;4.78;;;;;;;;;;5075565;28;20422;-85
2023/12/22 02:31:48;;;;;;;18.43;4.13;;;;;;;;;;5109862;28;20879;-84
2023/12/22 02:34:18;;;;;;;15.80;3.55;;;;;;;;;;5058468;28;20399;-77
2023/12/22 02:36:45;;;;;;;15.60;3.03;;;;;;;;;;5116247;27;20409;-77
2023/12/22 02:39:11;;;;;;;18.48;4.03;;;;;;;;;;5092027;28;20409;-77
2023/12/22 02:41:38;;;;;;;16.73;4.18;;;;;;;;;;5092161;28;20426;-77
2023/12/22 02:44:04;;;;;;;17.52;4.15;;;;;;;;;;5125621;27;20472;-78
2023/12/22 02:46:30;;;;;;;14.40;3.73;;;;;;;;;;5101610;28;20788;-84
2023/12/22 02:48:57;;;;;;;17.15;3.33;;;;;;;;;;5101098;28;20432;-84
2023/12/22 02:51:23;;;;;;;14.23;3.40;;;;;;;;;;5103661;28;20405;-84
2023/12/22 02:53:49;;;;;;;11.45;2.78;;;;;;;;;;5109679;27;20465;-83
2023/12/22 02:56:15;;;;;;;12.73;2.45;;;;;;;;;;5068965;28;20405;-83
2023/12/22 02:58:41;;;;;;;14.85;2.80;;;;;;;;;;5091707;28;20431;-84
2023/12/22 03:01:07;;;;;;;14.15;2.63;;;;;;;;;;5092181;28;20489;-83
2023/12/22 03:03:33;;;;;;;12.48;2.60;;;;;;;;;;5091266;28;20411;-84
2023/12/22 03:05:59;;;;;;;15.00;2.50;;;;;;;;;;5122024;27;20894;-84
2023/12/22 03:08:25;;;;;;;14.45;2.78;;;;;;;;;;5077815;28;20411;-84
2023/12/22 03:10:51;;;;;;;14.88;2.90;;;;;;;;;;5106039;28;20424;-83
2023/12/22 03:13:17;;;;;;;16.48;2.85;;;;;;;;;;5087685;28;20467;-84
2023/12/22 03:15:43;;;;;;;17.45;3.28;;;;;;;;;;5074363;28;20398;-84
2023/12/22 03:18:09;;;;;;;14.65;3.17;;;;;;;;;;5087544;28;20433;-84
2023/12/22 03:20:35;;;;;;;15.25;3.13;;;;;;;;;;5091130;28;20398;-83
2023/12/22 03:23:01;;;;;;;15.38;3.30;;;;;;;;;;5092368;28;20488;-85
2023/12/22 03:25:27;;;;;;;13.23;2.80;;;;;;;;;;5101574;28;20440;-84
2023/12/22 03:27:53;;;;;;;14.75;3.20;;;;;;;;;;5101562;28;20434;-84
2023/12/22 03:30:19;;;;;;;16.15;3.53;;;;;;;;;;5074860;28;20487;-84
2023/12/22 03:32:46;;;;;;;19.15;3.78;;;;;;;;;;5074312;28;20406;-83
2023/12/22 03:35:12;;;;;;;22.10;4.05;;;;;;;;;;5074513;28;20451;-84
2023/12/22 03:37:38;;;;;;;22.23;4.20;;;;;;;;;;5089527;28;20402;-82
2023/12/22 03:40:04;;;;;;;19.38;3.85;;;;;;;;;;5091869;28;20435;-84
2023/12/22 03:42:30;;;;;;;23.33;4.45;;;;;;;;;;5088136;28;20395;-84
2023/12/22 03:44:56;;;;;;;18.95;3.60;;;;;;;;;;5085480;28;20508;-83
2023/12/22 03:47:22;;;;;;;24.85;3.90;;;;;;;;;;5089683;28;20406;-84
2023/12/22 03:49:48;;;;;;;25.27;5.05;;;;;;;;;;5071944;28;20465;-84
2023/12/22 03:52:14;;;;;;;23.33;5.03;;;;;;;;;;5071350;28;20395;-84
2023/12/22 03:54:40;;;;;;;23.07;4.70;;;;;;;;;;5074080;28;20574;-83
2023/12/22 03:57:06;;;;;;;19.02;4.10;;;;;;;;;;5086498;28;20426;-83
2023/12/22 03:59:32;;;;;;;23.10;4.30;;;;;;;;;;5072471;28;20526;-83
2023/12/22 04:02:01;;;;;;;24.02;4.18;;;;;;;;;;5073254;28;20410;-83
2023/12/22 04:04:28;;;;;;;25.38;4.75;;;;;;;;;;5090451;28;20409;-83
2023/12/22 04:06:54;;;;;;;20.17;4.05;;;;;;;;;;5074740;28;20413;-83
2023/12/22 04:09:20;;;;;;;25.52;4.45;;;;;;;;;;5090983;28;20813;-83
2023/12/22 04:11:47;;;;;;;21.92;4.80;;;;;;;;;;5083757;28;20430;-84
2023/12/22 04:14:13;;;;;;;22.43;4.43;;;;;;;;;;5090676;28;20497;-84
2023/12/22 04:16:39;;;;;;;21.75;4.13;;;;;;;;;;5071936;28;20425;-84
2023/12/22 04:19:05;;;;;;;22.45;4.72;;;;;;;;;;5114974;27;20407;-84
2023/12/22 04:21:31;;;;;;;20.37;5.07;;;;;;;;;;5093535;28;20429;-83
2023/12/22 04:23:57;;;;;;;18.48;4.22;;;;;;;;;;5074183;28;20402;-84
2023/12/22 04:26:23;;;;;;;21.23;4.28;;;;;;;;;;5047638;28;20400;-84
2023/12/22 04:28:49;;;;;;;20.40;4.15;;;;;;;;;;5101299;27;20396;-84
2023/12/22 04:31:15;;;;;;;19.55;4.32;;;;;;;;;;5076593;28;20422;-84
2023/12/22 04:33:41;;;;;;;17.75;4.07;;;;;;;;;;5090760;28;20425;-84
2023/12/22 04:36:07;;;;;;;17.00;4.88;;;;;;;;;;5074048;28;20398;-84
2023/12/22 04:38:33;;;;;;;19.47;4.20;;;;;;;;;;5088935;28;20458;-84
2023/12/22 04:40:59;;;;;;;23.50;4.80;;;;;;;;;;5079867;28;20464;-84
2023/12/22 04:43:25;;;;;;;17.15;4.30;;;;;;;;;;5083855;28;20397;-83
2023/12/22 04:45:51;;;;;;;21.13;4.38;;;;;;;;;;5068674;28;20402;-83
2023/12/22 04:48:17;;;;;;;21.73;4.38;;;;;;;;;;5090253;28;20508;-83
2023/12/22 04:50:43;;;;;;;20.08;4.38;;;;;;;;;;5073077;28;20430;-83
2023/12/22 04:53:09;;;;;;;20.80;4.22;;;;;;;;;;5106247;27;20399;-83
2023/12/22 04:55:35;;;;;;;25.00;4.68;;;;;;;;;;5104105;28;20408;-83
2023/12/22 04:58:02;;;;;;;20.73;4.47;;;;;;;;;;5105948;27;20457;-84
2023/12/22 05:00:28;;;;;;;22.50;3.92;;;;;;;;;;5087505;28;20406;-84
2023/12/22 05:02:54;;;;;;;22.17;5.03;;;;;;;;;;5072588;28;20484;-83
2023/12/22 05:05:20;;;;;;;23.58;4.22;;;;;;;;;;5073315;28;20406;-84
2023/12/22 05:07:46;;;;;;;22.13;4.20;;;;;;;;;;5087051;28;20914;-84
2023/12/22 05:10:12;;;;;;;22.73;4.30;;;;;;;;;;5084148;28;20455;-84
2023/12/22 05:12:38;;;;;;;18.80;4.43;;;;;;;;;;5085686;28;20400;-83
2023/12/22 05:15:05;;;;;;;16.65;3.92;;;;;;;;;;5121889;28;20398;-84
2023/12/22 05:17:32;;;;;;;20.57;4.23;;;;;;;;;;5071015;28;20477;-83
2023/12/22 05:19:58;;;;;;;24.65;4.20;;;;;;;;;;5083961;28;20417;-84
2023/12/22 05:22:24;;;;;;;18.83;3.60;;;;;;;;;;5089583;28;20409;-82
2023/12/22 05:24:50;;;;;;;18.50;4.55;;;;;;;;;;5056658;28;20403;-83
2023/12/22 05:27:16;;;;;;;22.53;4.90;;;;;;;;;;5079900;28;20409;-77
2023/12/22 05:29:42;;;;;;;20.35;3.90;;;;;;;;;;5088045;28;20426;-77
2023/12/22 05:32:08;;;;;;;25.33;4.05;;;;;;;;;;5087890;28;20444;-77
2023/12/22 05:34:36;;;;;;;19.05;4.18;;;;;;;;;;5061229;28;20421;-77
2023/12/22 05:37:02;;;;;;;20.67;3.88;;;;;;;;;;5070244;28;20779;-77
2023/12/22 05:39:28;;;;;;;21.05;4.10;;;;;;;;;;5082969;28;20436;-77
2023/12/22 05:41:54;;;;;;;19.23;3.77;;;;;;;;;;5089040;28;20405;-77
2023/12/22 05:44:22;;;;;;;17.73;3.92;;;;;;;;;;5073056;28;20483;-77
2023/12/22 05:46:48;;;;;;;17.48;3.60;;;;;;;;;;5088500;28;20401;-77
2023/12/22 05:49:14;;;;;;;20.50;3.78;;;;;;;;;;5072335;28;20398;-77
2023/12/22 05:51:40;;;;;;;20.15;3.40;;;;;;;;;;5072654;28;20413;-77
2023/12/22 05:54:11;;;;;;;17.00;4.25;;;;;;;;;;5127440;27;20930;-77
2023/12/22 05:56:37;;;;;;;19.48;3.47;;;;;;;;;;5091976;28;20438;-78
2023/12/22 05:59:03;;;;;;;19.63;3.78;;;;;;;;;;5093797;28;20412;-77
2023/12/22 06:01:29;;;;;;;21.55;3.90;;;;;;;;;;5093583;28;20458;-76
2023/12/22 06:03:56;;;;;;;18.08;3.53;;;;;;;;;;5076359;28;20779;-77
2023/12/22 06:06:23;;;;;;;19.07;3.63;;;;;;;;;;5094014;28;20397;-77
2023/12/22 06:08:49;;;;;;;15.85;3.20;;;;;;;;;;5102351;28;20415;-77
2023/12/22 06:11:15;;;;;;;16.58;3.60;;;;;;;;;;5097298;28;20426;-77
2023/12/22 06:13:41;;;;;;;15.70;3.30;;;;;;;;;;5092441;28;20401;-83
2023/12/22 06:16:10;;;;;;;17.20;3.70;;;;;;;;;;5077265;28;20398;-83
2023/12/22 06:18:36;;;;;;;16.90;3.20;;;;;;;;;;5093375;28;20453;-83
2023/12/22 06:21:02;;;;;;;18.80;3.95;;;;;;;;;;5128625;27;20406;-82
2023/12/22 06:23:30;;;;;;;18.63;3.55;;;;;;;;;;5076896;28;20739;-77
2023/12/22 06:25:56;;;;;;;19.20;3.80;;;;;;;;;;5092383;28;20406;-83
2023/12/22 06:28:22;;;;;;;14.30;3.50;;;;;;;;;;5093494;28;20458;-83
2023/12/22 06:30:48;;;;;;;18.60;3.63;;;;;;;;;;5089540;28;20510;-84
2023/12/22 06:33:14;;;;;;;23.03;4.07;;;;;;;;;;5076611;28;20398;-83
2023/12/22 06:35:44;;;;;;;20.15;3.80;;;;;;;;;;5077372;28;20498;-83
2023/12/22 06:38:11;;;;;;;20.47;3.30;;;;;;;;;;5094603;28;20933;-84
2023/12/22 06:40:37;;;;;;;15.05;3.33;;;;;;;;;;5092395;28;20414;-82
2023/12/22 06:43:04;;;;;;;13.48;3.22;;;;;;;;;;5076288;28;20489;-77
2023/12/22 06:45:30;;;;;;;16.23;3.63;;;;;;;;;;5091388;28;20422;-77
2023/12/22 06:47:56;;;;;;;13.47;3.37;;;;;;;;;;5075169;28;20439;-78
2023/12/22 06:50:23;;;;;;;17.65;3.63;;;;;;;;;;5092310;28;20509;-77
2023/12/22 06:52:49;;;;;;;17.25;3.55;;;;;;;;;;5076235;28;20405;-76
2023/12/22 06:55:16;;;;;;;14.38;3.38;;;;;;;;;;5078387;28;20476;-78
2023/12/22 06:57:43;;;;;;;15.20;3.78;;;;;;;;;;5117699;27;20523;-77
2023/12/22 07:00:09;;;;;;;18.10;3.35;;;;;;;;;;5075938;28;20487;-77
2023/12/22 07:02:35;;;;;;;13.32;2.72;;;;;;;;;;5078168;28;20424;-78
2023/12/22 07:05:10;;;;;;;16.50;3.45;;;;;;;;;;5072688;28;20400;-78
2023/12/22 07:07:37;;;;;;;18.17;3.17;;;;;;;;;;5076364;28;20438;-78
2023/12/22 07:10:06;;;;;;;16.58;3.85;;;;;;;;;;5078042;28;20916;-85
2023/12/22 07:12:32;;;;;;;17.53;3.53;;;;;;;;;;5072774;28;20423;-84
2023/12/22 07:14:58;;;;;;;16.40;3.03;;;;;;;;;;5107883;28;20394;-85
2023/12/22 07:17:24;;;;;;;15.95;3.47;;;;;;;;;;5076864;28;20396;-84
2023/12/22 07:19:51;;;;;;;21.17;3.47;;;;;;;;;;5072398;28;20501;-78
2023/12/22 07:22:18;;;;;;;24.58;3.67;;;;;;;;;;5090366;28;20421;-78
2023/12/22 07:24:44;;;;;;;17.60;3.42;;;;;;;;;;5075313;28;20413;-78
2023/12/22 07:27:10;;;;;;;14.60;3.37;;;;;;;;;;5072204;28;20485;-78
2023/12/22 07:29:36;;;;;;;15.93;3.03;;;;;;;;;;5095499;28;20435;-78
2023/12/22 07:32:05;;;;;;;14.95;3.10;;;;;;;;;;5109800;27;20391;-77
2023/12/22 07:34:31;;;;;;;16.15;3.35;;;;;;;;;;5091173;28;20405;-83
2023/12/22 07:36:57;;;;;;;18.00;3.40;;;;;;;;;;5079073;28;20457;-83
2023/12/22 07:39:23;;;;;;;18.92;3.42;;;;;;;;;;5086270;28;20427;-83
2023/12/22 07:41:49;;;;;;;22.45;3.60;;;;;;;;;;5069602;28;20726;-83
2023/12/22 07:44:15;;;;;;;15.60;2.90;;;;;;;;;;5091883;28;20750;-83
2023/12/22 07:46:41;;;;;;;22.60;3.80;;;;;;;;;;5103712;28;20447;-84
2023/12/22 07:49:08;;;;;;;20.83;3.65;;;;;;;;;;5073098;28;20595;-83
2023/12/22 07:51:34;;;;;;;16.33;3.33;;;;;;;;;;5091755;28;20902;-84
2023/12/22 07:54:00;;;;;;;16.05;3.00;;;;;;;;;;5070105;28;20414;-83
2023/12/22 07:56:26;;;;;;;18.05;4.15;;;;;;;;;;5083183;28;20491;-83
2023/12/22 07:58:53;;;;;;;21.27;4.03;;;;;;;;;;5079950;28;20430;-82
2023/12/22 08:01:19;;;;;;;14.80;3.60;;;;;;;;;;5118412;27;20512;-82
2023/12/22 08:03:45;;;;;;;18.48;3.40;;;;;;;;;;5071209;28;20450;-82
2023/12/22 08:06:14;;;;;;;20.50;3.58;;;;;;;;;;5094997;28;20446;-84
2023/12/22 08:08:40;;;;;;;17.25;3.67;;;;;;;;;;5089111;28;20408;-82
2023/12/22 08:11:07;;;;;;;23.90;4.57;;;;;;;;;;5100438;27;20553;-83
2023/12/22 08:13:34;;;;;;;22.33;4.28;;;;;;;;;;5106815;28;20406;-77
2023/12/22 08:16:00;;;;;;;14.80;3.40;;;;;;;;;;5047142;28;20506;-77
2023/12/22 08:18:26;;;;;;;18.40;3.47;;;;;;;;;;5084738;28;20748;-77
2023/12/22 08:20:52;;;;;;;14.60;3.53;;;;;;;;;;5074093;28;20433;-77
2023/12/22 08:23:18;;;;;;;14.95;3.28;;;;;;;;;;5074041;28;20402;-77
2023/12/22 08:25:44;;;;;;;14.70;2.80;;;;;;;;;;5074223;28;20402;-77
2023/12/22 08:28:12;;;;;;;12.98;2.90;;;;;;;;;;5073208;28;20409;-77
2023/12/22 08:30:38;;;;;;;13.40;2.47;;;;;;;;;;5073557;28;20424;-77
2023/12/22 08:33:04;;;;;;;9.55;2.10;;;;;;;;;;5091222;28;20398;-78
2023/12/22 08:35:30;;;;;;;15.70;2.75;;;;;;;;;;5074055;28;20394;-77
2023/12/22 08:37:57;;;;;;;8.32;2.10;;;;;;;;;;5100537;28;20862;-78
2023/12/22 08:40:25;;;;;;;13.38;2.00;;;;;;;;;;5074603;28;20413;-78
2023/12/22 08:42:59;;;;;;;11.27;2.20;;;;;;;;;;5088878;28;20489;-78
2023/12/22 08:45:26;;;;;;;8.73;1.80;;;;;;;;;;5071068;28;20413;-78
2023/12/22 08:47:52;;;;;;;12.25;2.35;;;;;;;;;;5087349;28;20504;-82
2023/12/22 08:50:18;;;;;;;10.65;2.15;;;;;;;;;;5071270;28;20427;-81
2023/12/22 08:52:44;;;;;;;9.00;2.25;;;;;;;;;;5090491;28;20437;-83
2023/12/22 08:55:10;;;;;;;7.72;1.63;;;;;;;;;;5089346;28;20394;-83
2023/12/22 08:57:36;;;;;;;7.18;1.80;;;;;;;;;;5082855;28;20434;-83
2023/12/22 09:00:03;;;;;;;6.95;1.80;;;;;;;;;;5045574;28;20481;-83
2023/12/22 09:02:29;;;;;;;7.32;1.55;;;;;;;;;;5115573;27;20396;-84
2023/12/22 09:04:56;;;;;;;9.02;1.40;;;;;;;;;;5106028;28;20783;-84
2023/12/22 09:07:22;;;;;;;10.40;1.90;;;;;;;;;;5073205;28;20437;-83
2023/12/22 09:09:48;;;;;;;10.07;1.80;;;;;;;;;;5082446;28;20501;-76
2023/12/22 09:12:16;;;;;;;9.50;1.67;;;;;;;;;;5098401;28;20482;-79
2023/12/22 09:14:42;;;;;;;7.25;2.00;;;;;;;;;;5088212;28;20417;-79
2023/12/22 09:17:08;;;;;;;10.35;2.10;;;;;;;;;;5071973;28;20810;-79
2023/12/22 09:19:34;;;;;;;10.27;1.90;;;;;;;;;;5054120;28;20404;-78
2023/12/22 09:22:00;;;;;;;11.20;2.47;;;;;;;;;;5080215;28;20399;-81
2023/12/22 09:24:26;;;;;;;10.47;2.27;;;;;;;;;;5113070;28;20411;-78
2023/12/22 09:26:52;;;;;;;11.13;2.30;;;;;;;;;;5120161;27;20395;-81
2023/12/22 09:29:19;;;;;;;14.07;2.75;;;;;;;;;;5075784;28;20426;-78
2023/12/22 09:31:45;;;;;;;10.63;2.33;;;;;;;;;;5056272;28;20411;-81
2023/12/22 09:34:11;;;;;;;11.65;2.85;;;;;;;;;;5085852;28;20436;-80
2023/12/22 09:36:37;;;;;;;14.18;2.42;;;;;;;;;;5074867;28;20766;-79
2023/12/22 09:39:03;;;;;;;10.63;2.47;;;;;;;;;;5077307;28;20409;-79
2023/12/22 09:41:29;;;;;;;12.32;2.15;;;;;;;;;;5077228;28;20753;-80
2023/12/22 09:43:56;;;;;;;9.30;2.10;;;;;;;;;;5056675;28;20400;-78
2023/12/22 09:46:23;;;;;;;9.60;2.13;;;;;;;;;;5102310;28;20417;-78
2023/12/22 09:48:51;;;;;;;14.98;2.58;;;;;;;;;;5085463;28;20475;-78
2023/12/22 09:51:18;;;;;;;9.30;2.28;;;;;;;;;;5078727;28;20467;-78
2023/12/22 09:53:45;;;;;;;10.75;2.60;;;;;;;;;;5093076;28;20413;-78
2023/12/22 09:56:11;;;;;;;9.98;2.35;;;;;;;;;;5077568;28;20812;-78
2023/12/22 09:58:38;;;;;;;13.18;2.30;;;;;;;;;;5077622;28;20394;-78
2023/12/22 10:01:05;;;;;;;11.98;2.70;;;;;;;;;;5075973;28;20757;-78
2023/12/22 10:03:33;;;;;;;11.50;2.38;;;;;;;;;;5072365;28;20477;-78
2023/12/22 10:06:00;;;;;;;10.97;2.50;;;;;;;;;;5117317;27;20415;-79
2023/12/22 10:08:27;;;;;;;13.20;2.42;;;;;;;;;;5077268;28;20398;-79
2023/12/22 10:10:53;;;;;;;11.20;2.00;;;;;;;;;;5075104;28;20802;-83
2023/12/22 10:13:20;;;;;;;16.17;2.70;;;;;;;;;;5057810;28;20499;-82
2023/12/22 10:15:47;;;;;;;17.33;3.35;;;;;;;;;;5096010;28;20412;-82
2023/12/22 10:18:13;;;;;;;15.77;3.10;;;;;;;;;;5124797;27;20905;-83
2023/12/22 10:20:39;;;;;;;12.07;2.70;;;;;;;;;;5057380;28;20399;-82
2023/12/22 10:23:05;;;;;;;15.25;2.47;;;;;;;;;;5088313;28;20402;-82
2023/12/22 10:25:35;;;;;;;13.77;3.20;;;;;;;;;;5092871;28;20402;-79
2023/12/22 10:28:01;;;;;;;16.73;2.80;;;;;;;;;;5085859;28;20434;-78
2023/12/22 10:30:28;;;;;;;14.32;2.72;;;;;;;;;;5117255;27;20428;-79
2023/12/22 10:32:54;;;;;;;12.43;2.78;;;;;;;;;;5089573;28;20449;-78
2023/12/22 10:35:21;;;;;;;15.98;2.70;;;;;;;;;;5091178;28;20419;-81
2023/12/22 10:37:47;;;;;;;12.88;2.50;;;;;;;;;;5093413;28;20766;-82
2023/12/22 10:40:13;;;;;;;10.85;2.60;;;;;;;;;;5120791;27;20405;-78
2023/12/22 10:42:43;;;;;;;18.50;2.72;;;;;;;;;;5082881;28;20408;-77
2023/12/22 10:45:09;;;;;;;16.15;2.95;;;;;;;;;;5083756;28;20418;-77
2023/12/22 10:47:35;;;;;;;17.75;3.22;;;;;;;;;;5097420;28;20406;-77
2023/12/22 10:50:04;;;;;;;18.07;2.97;;;;;;;;;;5085541;28;20693;-78
2023/12/22 10:52:30;;;;;;;17.27;3.40;;;;;;;;;;5094662;28;20408;-78
2023/12/22 10:55:00;;;;;;;16.47;3.40;;;;;;;;;;5083065;28;21103;-77
2023/12/22 10:57:30;;;;;;;16.85;3.97;;;;;;;;;;5111278;27;20420;-77
2023/12/22 10:59:57;;;;;;;16.52;2.90;;;;;;;;;;5073505;28;20433;-78
2023/12/22 11:02:27;;;;;;;14.40;3.58;;;;;;;;;;5062207;28;20406;-77
2023/12/22 11:05:05;;;;;;;13.80;2.87;;;;;;;;;;5108905;27;20420;-77
2023/12/22 11:07:33;;;;;;;18.38;3.25;;;;;;;;;;5106472;27;20413;-78
2023/12/22 11:10:03;;;;;;;19.50;3.70;;;;;;;;;;5079191;28;20928;-82
2023/12/22 11:12:29;;;;;;;17.00;3.07;;;;;;;;;;5099300;28;20528;-81
2023/12/22 11:14:56;;;;;;;17.80;3.13;;;;;;;;;;5080016;28;21373;-82
2023/12/22 11:17:23;;;;;;;15.43;3.07;;;;;;;;;;5107862;27;20411;-81
2023/12/22 11:19:50;;;;;;;15.25;3.20;;;;;;;;;;5097826;28;20414;-81
2023/12/22 11:22:20;;;;;;;19.35;3.30;;;;;;;;;;5089101;28;20879;-77
2023/12/22 11:24:50;;;;;;;19.20;3.30;;;;;;;;;;5077356;28;20418;-78
2023/12/22 11:27:18;;;;;;;12.50;3.20;;;;;;;;;;5120448;27;20423;-77
2023/12/22 11:29:45;;;;;;;19.48;3.33;;;;;;;;;;5097833;28;20492;-77
2023/12/22 11:32:13;;;;;;;22.25;3.33;;;;;;;;;;5087155;28;20505;-77
2023/12/22 11:34:40;;;;;;;14.63;3.22;;;;;;;;;;5092130;28;20419;-80
2023/12/22 11:37:08;;;;;;;10.13;2.78;;;;;;;;;;5091679;28;20418;-81
2023/12/22 11:39:34;;;;;;;17.35;3.08;;;;;;;;;;5118375;27;20422;-81
2023/12/22 11:42:00;;;;;;;12.70;2.50;;;;;;;;;;5079000;28;20982;-81
2023/12/22 11:44:26;;;;;;;9.65;2.47;;;;;;;;;;5092082;28;20452;-81
2023/12/22 11:47:05;;;;;;;11.07;2.55;;;;;;;;;;5064410;28;20450;-80
2023/12/22 11:49:35;;;;;;;15.70;2.70;;;;;;;;;;5087513;28;20445;-81
2023/12/22 11:52:12;;;;;;;15.68;2.85;;;;;;;;;;5089949;28;20421;-82
2023/12/22 11:54:49;;;;;;;21.20;3.28;;;;;;;;;;5076196;28;20493;-81
2023/12/22 11:57:34;;;;;;;13.60;2.90;;;;;;;;;;5082436;28;20549;-80
2023/12/22 12:00:07;;;;;;;14.77;2.75;;;;;;;;;;5086275;28;20431;-81
2023/12/22 12:02:40;;;;;;;13.10;2.75;;;;;;;;;;5082872;28;20485;-81
2023/12/22 12:05:07;;;;;;;16.80;2.92;;;;;;;;;;5117472;27;20773;-82
2023/12/22 12:07:44;;;;;;;15.82;2.95;;;;;;;;;;5096296;28;20428;-80
2023/12/22 12:10:14;;;;;;;12.35;2.72;;;;;;;;;;5085118;28;21083;-80
2023/12/22 12:12:40;;;;;;;15.13;2.70;;;;;;;;;;5075466;28;21957;-82
2023/12/22 12:15:11;;;;;;;16.75;3.30;;;;;;;;;;5075022;28;20427;-81
2023/12/22 12:17:42;;;;;;;18.73;3.22;;;;;;;;;;5085881;28;20426;-81
2023/12/22 12:20:09;;;;;;;15.82;2.75;;;;;;;;;;5084658;28;20971;-81
2023/12/22 12:22:37;;;;;;;14.40;2.88;;;;;;;;;;5091149;28;20430;-82
2023/12/22 12:25:06;;;;;;;15.25;2.67;;;;;;;;;;5080635;28;20428;-81
2023/12/22 12:27:36;;;;;;;14.13;2.55;;;;;;;;;;5095282;28;20929;-80
2023/12/22 12:30:11;;;;;;;21.02;3.25;;;;;;;;;;5084334;28;20432;-81
2023/12/22 12:32:37;;;;;;;16.98;3.30;;;;;;;;;;5076407;28;20412;-81
2023/12/22 12:35:03;;;;;;;15.67;2.80;;;;;;;;;;5088216;28;20416;-81
2023/12/22 12:37:30;;;;;;;20.30;3.20;;;;;;;;;;5091560;28;20433;-81
2023/12/22 12:40:00;;;;;;;17.52;2.78;;;;;;;;;;5053625;28;20431;-81
2023/12/22 12:42:28;;;;;;;15.75;2.72;;;;;;;;;;5076653;28;20425;-78
2023/12/22 12:44:55;;;;;;;13.00;2.67;;;;;;;;;;5078320;28;20423;-78
2023/12/22 12:47:21;;;;;;;16.50;3.10;;;;;;;;;;5088590;28;20402;-77
2023/12/22 12:49:47;;;;;;;14.73;2.77;;;;;;;;;;5090498;28;20501;-78
2023/12/22 12:52:17;;;;;;;13.98;2.95;;;;;;;;;;5092967;28;20502;-78
2023/12/22 12:54:43;;;;;;;17.25;2.47;;;;;;;;;;5066854;28;20400;-81
2023/12/22 12:57:14;;;;;;;15.48;2.75;;;;;;;;;;5070668;28;20477;-81
2023/12/22 12:59:45;;;;;;;13.75;2.50;;;;;;;;;;5073763;28;20803;-81
2023/12/22 13:02:11;;;;;;;12.30;2.40;;;;;;;;;;5106467;28;20888;-81
2023/12/22 13:04:40;;;;;;;14.52;2.40;;;;;;;;;;5091373;28;20404;-82
2023/12/22 13:07:06;;;;;;;11.48;2.42;;;;;;;;;;5089841;28;20789;-82
2023/12/22 13:09:34;;;;;;;10.43;2.25;;;;;;;;;;5090251;28;20421;-82
2023/12/22 13:12:03;;;;;;;10.93;2.08;;;;;;;;;;5059148;28;20479;-82
2023/12/22 13:14:29;;;;;;;7.70;1.92;;;;;;;;;;5090296;28;20874;-81
2023/12/22 13:16:56;;;;;;;10.95;2.15;;;;;;;;;;5079262;28;20425;-81
2023/12/22 13:19:26;;;;;;;13.68;2.45;;;;;;;;;;5073888;28;20437;-82
2023/12/22 13:21:53;;;;;;;12.13;2.27;;;;;;;;;;5057144;28;20462;-81
2023/12/22 13:24:19;;;;;;;11.95;2.40;;;;;;;;;;5073623;28;20409;-81
2023/12/22 13:26:45;;;;;;;10.23;2.53;;;;;;;;;;5065257;28;20471;-82
2023/12/22 13:29:12;;;;;;;15.77;3.10;;;;;;;;;;5090273;28;20460;-82
2023/12/22 13:31:39;;;;;;;16.35;2.40;;;;;;;;;;5073542;28;20484;-81
2023/12/22 13:34:11;;;;;;;13.70;3.08;;;;;;;;;;5055715;28;20824;-81
2023/12/22 13:36:38;;;;;;;18.73;2.80;;;;;;;;;;5073315;28;20403;-81
2023/12/22 13:39:07;;;;;;;15.23;2.60;;;;;;;;;;5071570;28;20423;-80
2023/12/22 13:41:34;;;;;;;16.48;2.83;;;;;;;;;;5062544;28;20894;-80
2023/12/22 13:44:04;;;;;;;15.20;2.53;;;;;;;;;;5056951;28;20436;-81
2023/12/22 13:46:31;;;;;;;12.07;2.47;;;;;;;;;;5090106;28;20469;-81
2023/12/22 13:48:57;;;;;;;17.13;2.67;;;;;;;;;;5073699;28;20969;-81
2023/12/22 13:51:23;;;;;;;14.90;2.60;;;;;;;;;;5073101;28;20458;-78
2023/12/22 13:53:50;;;;;;;10.95;2.35;;;;;;;;;;5065963;28;20405;-81
2023/12/22 13:56:16;;;;;;;12.27;2.15;;;;;;;;;;5073197;28;20401;-80
2023/12/22 13:58:48;;;;;;;9.02;2.30;;;;;;;;;;5055461;28;20430;-81
2023/12/22 14:01:15;;;;;;;11.10;2.17;;;;;;;;;;5073500;28;20871;-81
2023/12/22 14:03:41;;;;;;;10.38;2.00;;;;;;;;;;5073036;28;20405;-81
2023/12/22 14:06:09;;;;;;;8.13;1.58;;;;;;;;;;5072959;28;20402;-81
2023/12/22 14:08:35;;;;;;;7.20;1.50;;;;;;;;;;5044545;28;20419;-82
2023/12/22 14:11:01;;;;;;;9.57;1.80;;;;;;;;;;5083646;28;20432;-82
2023/12/22 14:13:28;;;;;;;8.88;1.40;;;;;;;;;;5073285;28;20947;-82
2023/12/22 14:15:54;;;;;;;10.75;1.88;;;;;;;;;;5076577;28;20481;-82
2023/12/22 14:18:20;;;;;;;8.98;1.50;;;;;;;;;;5093369;28;20394;-82
2023/12/22 14:20:46;;;;;;;5.75;1.45;;;;;;;;;;5076643;28;20485;-82
2023/12/22 14:23:16;;;;;;;7.47;1.45;;;;;;;;;;5063078;28;20898;-82
2023/12/22 14:25:42;;;;;;;4.70;1.38;;;;;;;;;;5077055;28;20448;-82
2023/12/22 14:28:09;;;;;;;6.65;1.95;;;;;;;;;;5076578;28;20833;-79